createdAt,value
2023-02-03T00:02:14.512Z,1.30
2023-02-03T00:04:41.704Z,1.20
2023-02-03T00:07:11.738Z,1.20
2023-02-03T00:09:42.001Z,1.20
2023-02-03T00:12:09.551Z,1.10
2023-02-03T00:14:38.022Z,1.10
2023-02-03T00:17:06.213Z,1.00
2023-02-03T00:19:33.212Z,1.00
2023-02-03T00:22:00.219Z,1.00
2023-02-03T00:24:28.602Z,1.00
2023-02-03T00:26:55.513Z,1.00
2023-02-03T00:29:25.988Z,1.00
2023-02-03T00:31:54.155Z,1.00
2023-02-03T00:34:23.380Z,1.00
2023-02-03T00:36:50.685Z,1.00
2023-02-03T00:39:19.886Z,1.00
2023-02-03T00:41:48.014Z,1.00
2023-02-03T00:44:16.578Z,1.00
2023-02-03T00:46:51.401Z,1.00
2023-02-03T00:49:21.318Z,1.00
2023-02-03T00:51:48.161Z,0.90
2023-02-03T00:54:15.055Z,1.00
2023-02-03T00:56:43.754Z,1.00
2023-02-03T00:59:16.502Z,1.00
2023-02-03T01:01:43.327Z,1.00
2023-02-03T01:04:14.374Z,0.90
2023-02-03T01:06:41.841Z,0.80
2023-02-03T01:09:08.855Z,0.80
2023-02-03T01:11:36.973Z,0.80
2023-02-03T01:14:03.842Z,0.80
2023-02-03T01:16:36.501Z,0.70
2023-02-03T01:19:03.932Z,0.80
2023-02-03T01:21:32.454Z,0.70
2023-02-03T01:24:00.879Z,0.80
2023-02-03T01:26:28.856Z,0.70
2023-02-03T01:28:58.136Z,0.70
2023-02-03T01:31:29.238Z,0.70
2023-02-03T01:33:57.187Z,0.70
2023-02-03T01:36:28.938Z,0.70
2023-02-03T01:38:58.928Z,0.70
2023-02-03T01:41:29.205Z,0.70
2023-02-03T01:43:59.607Z,0.70
2023-02-03T01:46:59.120Z,0.70
2023-02-03T01:49:36.751Z,0.70
2023-02-03T01:52:06.334Z,0.60
2023-02-03T01:54:40.340Z,0.70
2023-02-03T01:57:23.144Z,0.70
2023-02-03T01:59:52.554Z,0.70
2023-02-03T02:02:19.820Z,0.70
2023-02-03T02:05:05.949Z,0.70
2023-02-03T02:07:37.770Z,0.70
2023-02-03T02:10:06.289Z,0.70
2023-02-03T02:12:33.436Z,0.70
2023-02-03T02:15:00.903Z,0.70
2023-02-03T02:17:39.400Z,0.60
2023-02-03T02:20:25.645Z,0.60
2023-02-03T02:23:17.351Z,0.60
2023-02-03T02:26:18.267Z,0.50
2023-02-03T02:28:59.923Z,0.50
2023-02-03T02:32:19.380Z,0.50
2023-02-03T02:35:02.706Z,0.50
2023-02-03T02:37:56.605Z,0.50
2023-02-03T02:40:40.597Z,0.50
2023-02-03T02:43:41.391Z,0.50
2023-02-03T02:46:19.438Z,0.50
2023-02-03T02:48:59.645Z,0.50
2023-02-03T02:51:33.801Z,0.50
2023-02-03T02:54:07.807Z,0.50
2023-02-03T02:56:43.395Z,0.50
2023-02-03T02:59:10.698Z,0.50
2023-02-03T03:01:37.997Z,0.50
2023-02-03T03:04:08.926Z,0.50
2023-02-03T03:06:41.442Z,0.40
2023-02-03T03:09:16.840Z,0.50
2023-02-03T03:12:07.592Z,0.40
2023-02-03T03:14:41.571Z,0.40
2023-02-03T03:17:11.214Z,0.40
2023-02-03T03:19:44.845Z,0.40
2023-02-03T03:22:16.408Z,0.40
2023-02-03T03:24:58.553Z,0.40
2023-02-03T03:27:32.349Z,0.40
2023-02-03T03:30:06.602Z,0.30
2023-02-03T03:32:37.139Z,0.30
2023-02-03T03:35:05.848Z,0.20
2023-02-03T03:37:46.407Z,0.10
2023-02-03T03:40:26.342Z,0.10
2023-02-03T03:42:57.697Z,0.10
2023-02-03T03:45:33.144Z,0.00
2023-02-03T03:48:11.946Z,0.00
2023-02-03T03:50:45.840Z,-0.10
2023-02-03T03:53:15.796Z,-0.10
2023-02-03T03:55:44.581Z,-0.20
2023-02-03T03:58:15.946Z,-0.20
2023-02-03T04:00:46.169Z,-0.20
2023-02-03T04:03:21.307Z,-0.20
2023-02-03T04:05:54.038Z,-0.20
2023-02-03T04:08:22.010Z,-0.20
2023-02-03T04:10:54.738Z,-0.20
2023-02-03T04:13:22.916Z,-0.10
2023-02-03T04:15:50.071Z,-0.10
2023-02-03T04:18:17.402Z,-0.10
2023-02-03T04:20:44.259Z,0.00
2023-02-03T04:23:11.080Z,0.00
2023-02-03T04:25:37.969Z,0.00
2023-02-03T04:28:06.083Z,0.10
2023-02-03T04:30:33.790Z,0.10
2023-02-03T04:33:01.060Z,0.10
2023-02-03T04:35:28.247Z,0.10
2023-02-03T04:37:58.291Z,0.10
2023-02-03T04:40:25.255Z,0.10
2023-02-03T04:42:53.172Z,0.10
2023-02-03T04:45:22.536Z,0.00
2023-02-03T04:47:54.454Z,0.00
2023-02-03T04:50:21.856Z,0.00
2023-02-03T04:52:49.166Z,0.00
2023-02-03T04:55:16.096Z,0.00
2023-02-03T04:57:44.120Z,-0.10
2023-02-03T05:00:11.781Z,-0.10
2023-02-03T05:02:38.694Z,-0.10
2023-02-03T05:05:06.097Z,-0.10
2023-02-03T05:07:33.099Z,-0.20
2023-02-03T05:09:59.936Z,-0.30
2023-02-03T05:12:28.135Z,-0.30
2023-02-03T05:14:55.221Z,-0.30
2023-02-03T05:17:22.073Z,-0.40
2023-02-03T05:19:50.125Z,-0.40
2023-02-03T05:22:18.303Z,-0.40
2023-02-03T05:24:47.146Z,-0.40
2023-02-03T05:27:14.004Z,-0.50
2023-02-03T05:29:40.846Z,-0.50
2023-02-03T05:32:07.885Z,-0.50
2023-02-03T05:34:35.187Z,-0.50
2023-02-03T05:37:03.521Z,-0.60
2023-02-03T05:39:30.457Z,-0.60
2023-02-03T05:42:04.415Z,-0.60
2023-02-03T05:44:34.639Z,-0.70
2023-02-03T05:47:02.682Z,-0.70
2023-02-03T05:49:29.567Z,-0.70
2023-02-03T05:51:57.069Z,-0.70
2023-02-03T05:54:24.431Z,-0.70
2023-02-03T05:56:51.726Z,-0.70
2023-02-03T05:59:19.618Z,-0.70
2023-02-03T06:01:46.522Z,-0.70
2023-02-03T06:04:16.890Z,-0.70
2023-02-03T06:06:47.788Z,-0.70
2023-02-03T06:09:14.640Z,-0.70
2023-02-03T06:11:43.675Z,-0.70
2023-02-03T06:14:15.799Z,-0.70
2023-02-03T06:16:45.048Z,-0.70
2023-02-03T06:19:17.780Z,-0.70
2023-02-03T06:21:45.936Z,-0.70
2023-02-03T06:24:13.031Z,-0.70
2023-02-03T06:26:43.215Z,-0.70
2023-02-03T06:29:10.247Z,-0.70
2023-02-03T06:31:37.229Z,-0.70
2023-02-03T06:34:04.324Z,-0.60
2023-02-03T06:36:31.086Z,-0.60
2023-02-03T06:38:59.325Z,-0.60
2023-02-03T06:41:30.680Z,-0.60
2023-02-03T06:43:59.653Z,-0.50
2023-02-03T06:46:30.500Z,-0.50
2023-02-03T06:48:59.522Z,-0.40
2023-02-03T06:51:26.732Z,-0.40
2023-02-03T06:53:53.805Z,-0.40
2023-02-03T06:56:20.904Z,-0.40
2023-02-03T06:58:49.005Z,-0.40
2023-02-03T07:01:16.025Z,-0.30
2023-02-03T07:03:44.142Z,-0.30
2023-02-03T07:06:12.414Z,-0.30
2023-02-03T07:08:41.818Z,-0.30
2023-02-03T07:11:09.448Z,-0.20
2023-02-03T07:13:36.441Z,-0.20
2023-02-03T07:16:03.597Z,-0.20
2023-02-03T07:18:48.287Z,-0.10
2023-02-03T07:21:16.914Z,-0.10
2023-02-03T07:23:47.540Z,-0.10
2023-02-03T07:26:17.169Z,-0.10
2023-02-03T07:28:44.056Z,-0.10
2023-02-03T07:31:11.292Z,0.00
2023-02-03T07:33:41.566Z,0.00
2023-02-03T07:36:10.656Z,0.00
2023-02-03T07:38:38.623Z,0.00
2023-02-03T07:41:06.735Z,0.10
2023-02-03T07:43:33.923Z,0.10
2023-02-03T07:46:02.186Z,0.10
2023-02-03T07:48:30.276Z,0.20
2023-02-03T07:51:04.325Z,0.20
2023-02-03T07:53:37.006Z,0.30
2023-02-03T07:56:05.918Z,0.30
2023-02-03T07:58:34.856Z,0.40
2023-02-03T08:01:01.893Z,0.40
2023-02-03T08:03:29.923Z,0.50
2023-02-03T08:05:56.694Z,0.50
2023-02-03T08:08:23.683Z,0.60
2023-02-03T08:10:56.808Z,0.60
2023-02-03T08:13:24.106Z,0.60
2023-02-03T08:15:51.067Z,0.70
2023-02-03T08:18:18.173Z,0.70
2023-02-03T08:20:46.331Z,0.80
2023-02-03T08:23:13.494Z,0.80
2023-02-03T08:25:40.552Z,0.90
2023-02-03T08:28:13.203Z,0.90
2023-02-03T08:30:41.276Z,1.00
2023-02-03T08:33:09.474Z,1.10
2023-02-03T08:35:36.391Z,1.10
2023-02-03T08:38:03.200Z,1.20
2023-02-03T08:40:30.643Z,1.30
2023-02-03T08:42:57.973Z,1.30
2023-02-03T08:45:26.117Z,1.40
2023-02-03T08:47:54.214Z,1.50
2023-02-03T08:50:22.198Z,1.60
2023-02-03T08:52:50.330Z,1.60
2023-02-03T08:55:18.407Z,1.70
2023-02-03T08:57:45.911Z,1.70
2023-02-03T09:00:14.234Z,1.80
2023-02-03T09:02:41.100Z,1.80
2023-02-03T09:05:09.438Z,1.80
2023-02-03T09:07:36.271Z,1.80
2023-02-03T09:10:05.361Z,1.70
2023-02-03T09:12:32.403Z,1.70
2023-02-03T09:15:00.456Z,1.70
2023-02-03T09:17:34.652Z,1.70
2023-02-03T09:20:01.657Z,1.70
2023-02-03T09:22:28.719Z,1.70
2023-02-03T09:24:57.114Z,1.80
2023-02-03T09:27:24.222Z,1.70
2023-02-03T09:29:53.220Z,1.70
2023-02-03T09:32:21.409Z,1.70
2023-02-03T09:34:50.271Z,1.70
2023-02-03T09:37:20.249Z,1.70
2023-02-03T09:39:48.968Z,1.70
2023-02-03T09:42:51.151Z,1.80
2023-02-03T09:45:26.417Z,1.90
2023-02-03T09:48:09.875Z,2.00
2023-02-03T09:50:44.313Z,2.20
2023-02-03T09:53:45.188Z,2.30
2023-02-03T09:56:29.858Z,2.30
2023-02-03T09:58:58.203Z,2.30
2023-02-03T10:01:38.101Z,2.30
2023-02-03T10:04:13.702Z,2.30
2023-02-03T10:06:45.876Z,2.30
2023-02-03T10:09:51.301Z,2.40
2023-02-03T10:12:26.559Z,2.40
2023-02-03T10:15:31.970Z,2.30
2023-02-03T10:18:08.370Z,2.30
2023-02-03T10:20:55.620Z,2.30
2023-02-03T10:23:39.143Z,2.20
2023-02-03T10:26:10.547Z,2.10
2023-02-03T10:28:41.561Z,2.10
2023-02-03T10:31:23.810Z,2.10
2023-02-03T10:34:00.282Z,2.10
2023-02-03T10:36:46.609Z,2.20
2023-02-03T10:39:41.328Z,2.20
2023-02-03T10:42:10.743Z,2.20
2023-02-03T10:44:48.478Z,2.30
2023-02-03T10:47:36.391Z,2.30
2023-02-03T10:50:15.193Z,2.30
2023-02-03T10:52:44.826Z,2.30
2023-02-03T10:55:30.462Z,2.40
2023-02-03T10:57:58.451Z,2.50
2023-02-03T11:00:29.993Z,2.50
2023-02-03T11:03:13.217Z,2.50
2023-02-03T11:05:41.995Z,2.50
2023-02-03T11:08:17.435Z,2.50
2023-02-03T11:10:47.668Z,2.50
2023-02-03T11:13:27.111Z,2.40
2023-02-03T11:15:57.719Z,2.40
2023-02-03T11:18:46.477Z,2.40
2023-02-03T11:21:56.788Z,2.40
2023-02-03T11:24:33.189Z,2.50
2023-02-03T11:27:04.967Z,2.50
2023-02-03T11:29:41.687Z,2.50
2023-02-03T11:32:34.233Z,2.40
2023-02-03T11:35:02.763Z,2.40
2023-02-03T11:37:42.107Z,2.40
2023-02-03T11:40:15.144Z,2.40
2023-02-03T11:42:59.243Z,2.40
2023-02-03T11:45:50.213Z,2.30
2023-02-03T11:48:38.760Z,2.30
2023-02-03T11:51:14.852Z,2.30
2023-02-03T11:54:18.808Z,2.30
2023-02-03T11:57:22.464Z,2.40
2023-02-03T12:00:00.629Z,2.40
2023-02-03T12:02:59.674Z,2.40
2023-02-03T12:05:59.903Z,2.40
2023-02-03T12:08:55.581Z,2.40
2023-02-03T12:11:46.420Z,2.40
2023-02-03T12:14:53.921Z,2.50
2023-02-03T12:17:45.749Z,2.40
2023-02-03T12:20:24.974Z,2.40
2023-02-03T12:22:59.491Z,2.50
2023-02-03T12:26:01.953Z,2.40
2023-02-03T12:29:06.352Z,2.40
2023-02-03T12:31:39.593Z,2.30
2023-02-03T12:34:14.128Z,2.20
2023-02-03T12:36:46.922Z,2.10
2023-02-03T12:39:26.629Z,2.00
2023-02-03T12:42:35.667Z,2.00
2023-02-03T12:45:14.590Z,1.80
2023-02-03T12:47:51.309Z,1.70
2023-02-03T12:50:19.648Z,1.70
2023-02-03T12:52:58.017Z,1.60
2023-02-03T12:55:43.151Z,1.50
2023-02-03T12:58:23.048Z,1.40
2023-02-03T13:01:04.353Z,1.40
2023-02-03T13:03:45.057Z,1.30
2023-02-03T13:06:38.977Z,1.30
2023-02-03T13:09:21.002Z,1.30
2023-02-03T13:12:00.700Z,1.20
2023-02-03T13:15:12.346Z,1.20
2023-02-03T13:18:18.858Z,1.20
2023-02-03T13:20:49.025Z,1.20
2023-02-03T13:23:16.232Z,1.20
2023-02-03T13:26:06.846Z,1.20
2023-02-03T13:28:48.833Z,1.20
2023-02-03T13:31:27.681Z,1.20
2023-02-03T13:34:06.611Z,1.20
2023-02-03T13:36:36.467Z,1.20
2023-02-03T13:39:34.390Z,1.20
2023-02-03T13:42:23.106Z,1.20
2023-02-03T13:45:31.035Z,1.20
2023-02-03T13:48:18.302Z,1.20
2023-02-03T13:50:51.392Z,1.10
2023-02-03T13:53:24.652Z,1.10
2023-02-03T13:56:00.407Z,1.10
2023-02-03T13:58:33.262Z,1.10
2023-02-03T14:01:40.853Z,1.10
2023-02-03T14:04:29.553Z,1.10
2023-02-03T14:07:02.079Z,1.00
2023-02-03T14:09:38.980Z,1.00
2023-02-03T14:12:27.636Z,1.00
2023-02-03T14:15:05.114Z,1.00
2023-02-03T14:17:37.173Z,0.90
2023-02-03T14:20:25.966Z,0.90
2023-02-03T14:22:59.762Z,0.90
2023-02-03T14:25:28.036Z,0.90
2023-02-03T14:28:06.126Z,0.80
2023-02-03T14:30:54.242Z,0.80
2023-02-03T14:33:25.750Z,0.80
2023-02-03T14:35:52.809Z,0.90
2023-02-03T14:38:19.903Z,0.80
2023-02-03T14:41:04.803Z,0.80
2023-02-03T14:44:30.313Z,0.80
2023-02-03T14:47:15.009Z,0.80
2023-02-03T14:50:14.403Z,0.80
2023-02-03T14:52:56.104Z,0.80
2023-02-03T14:55:35.629Z,0.80
2023-02-03T14:58:07.682Z,0.80
2023-02-03T15:00:35.814Z,0.80
2023-02-03T15:03:11.217Z,0.80
2023-02-03T15:05:46.365Z,0.80
2023-02-03T15:08:41.060Z,0.80
2023-02-03T15:11:31.264Z,0.80
2023-02-03T15:14:20.351Z,0.80
2023-02-03T15:16:58.760Z,0.80
2023-02-03T15:19:35.759Z,0.80
2023-02-03T15:22:18.871Z,0.80
2023-02-03T15:24:52.517Z,0.80
2023-02-03T15:27:26.969Z,0.90
2023-02-03T15:29:59.057Z,0.80
2023-02-03T15:32:34.055Z,0.80
2023-02-03T15:35:03.536Z,0.80
2023-02-03T15:37:45.946Z,0.70
2023-02-03T15:40:20.352Z,0.80
2023-02-03T15:43:13.578Z,0.80
2023-02-03T15:45:49.205Z,0.80
2023-02-03T15:48:38.449Z,0.80
2023-02-03T15:51:11.140Z,0.80
2023-02-03T15:53:51.602Z,0.80
2023-02-03T15:56:30.538Z,0.80
2023-02-03T15:58:58.864Z,0.80
2023-02-03T16:01:28.231Z,0.80
2023-02-03T16:03:56.727Z,0.80
2023-02-03T16:06:39.945Z,0.80
2023-02-03T16:09:25.494Z,0.80
2023-02-03T16:12:27.140Z,0.80
2023-02-03T16:14:55.988Z,0.80
2023-02-03T16:17:27.849Z,0.80
2023-02-03T16:20:12.566Z,0.80
2023-02-03T16:22:43.674Z,0.80
2023-02-03T16:25:31.767Z,0.80
2023-02-03T16:28:40.741Z,0.80
2023-02-03T16:31:29.285Z,0.80
2023-02-03T16:34:14.679Z,0.80
2023-02-03T16:37:02.880Z,0.80
2023-02-03T16:39:50.341Z,0.80
2023-02-03T16:42:39.570Z,0.80
2023-02-03T16:45:36.892Z,0.80
2023-02-03T16:48:23.694Z,0.80
2023-02-03T16:50:58.133Z,0.80
2023-02-03T16:53:31.454Z,0.80
2023-02-03T16:56:01.551Z,0.80
2023-02-03T16:58:28.739Z,0.90
2023-02-03T17:00:57.703Z,0.80
2023-02-03T17:03:26.202Z,0.80
2023-02-03T17:05:54.408Z,0.80
2023-02-03T17:08:23.918Z,0.80
2023-02-03T17:10:52.008Z,0.80
2023-02-03T17:13:21.518Z,0.90
2023-02-03T17:15:52.524Z,0.90
2023-02-03T17:18:20.232Z,0.90
2023-02-03T17:20:47.757Z,0.90
2023-02-03T17:23:17.890Z,0.90
2023-02-03T17:25:47.233Z,0.90
2023-02-03T17:28:14.792Z,0.90
2023-02-03T17:30:42.136Z,0.90
2023-02-03T17:33:12.341Z,0.90
2023-02-03T17:35:44.563Z,1.00
2023-02-03T17:38:13.427Z,1.00
2023-02-03T17:54:29.850Z,1.10
2023-02-03T17:56:56.908Z,1.10
2023-02-03T17:59:23.754Z,1.10
2023-02-03T18:01:50.573Z,1.00
2023-02-03T18:04:17.571Z,1.00
2023-02-03T18:06:46.480Z,1.00
2023-02-03T18:09:16.598Z,1.00
2023-02-03T18:11:44.905Z,1.00
2023-02-03T18:14:13.831Z,1.00
2023-02-03T18:16:41.442Z,1.00
2023-02-03T18:19:13.584Z,1.00
2023-02-03T18:21:42.648Z,0.90
2023-02-03T18:24:11.741Z,1.00
2023-02-03T18:26:51.735Z,1.00
2023-02-03T18:29:20.126Z,1.10
2023-02-03T18:31:48.461Z,1.20
2023-02-03T18:34:17.124Z,1.90
2023-02-03T18:36:44.281Z,1.50
2023-02-03T18:39:12.768Z,1.10
2023-02-03T18:44:07.396Z,1.10
2023-02-03T18:46:35.734Z,1.00
2023-02-03T18:49:03.585Z,1.10
2023-02-03T18:51:30.674Z,1.10
2023-02-03T18:54:01.087Z,1.00
2023-02-03T18:56:35.571Z,1.20
2023-02-03T18:59:09.233Z,1.20
2023-02-03T19:01:38.836Z,1.30
2023-02-03T19:04:06.307Z,1.10
2023-02-03T19:06:34.809Z,1.20
2023-02-03T19:11:29.328Z,1.10
2023-02-03T19:13:57.358Z,1.10
2023-02-03T19:16:24.467Z,1.20
2023-02-03T19:18:51.684Z,1.10
2023-02-03T19:21:19.656Z,1.10
2023-02-03T19:23:46.608Z,1.20
2023-02-03T19:26:14.625Z,1.10
2023-02-03T19:28:41.850Z,1.10
2023-02-03T19:31:13.137Z,1.20
2023-02-03T19:36:08.726Z,1.20
2023-02-03T19:38:38.067Z,1.20
2023-02-03T19:41:05.337Z,1.20
2023-02-03T19:43:34.516Z,1.20
2023-02-03T19:46:04.502Z,1.40
2023-02-03T19:48:32.719Z,1.20
2023-02-03T19:51:07.362Z,1.40
2023-02-03T19:53:36.586Z,1.20
2023-02-03T19:56:03.860Z,1.20
2023-02-03T19:58:30.930Z,1.10
2023-02-03T20:00:58.083Z,1.80
2023-02-03T20:03:25.085Z,1.10
2023-02-03T20:05:53.314Z,1.20
2023-02-03T20:08:22.558Z,1.40
2023-02-03T20:10:56.655Z,1.20
2023-02-03T20:13:24.536Z,1.20
2023-02-03T20:15:55.840Z,1.40
2023-02-03T20:18:22.949Z,1.10
2023-02-03T20:20:56.832Z,1.20
2023-02-03T20:23:24.858Z,1.30
2023-02-03T20:25:53.278Z,1.10
2023-02-03T20:28:29.267Z,1.20
2023-02-03T20:30:58.997Z,1.30
2023-02-03T20:33:28.458Z,1.60
2023-02-03T20:35:56.004Z,1.20
2023-02-03T20:38:23.122Z,1.00
2023-02-03T20:43:22.822Z,1.10
2023-02-03T20:45:51.635Z,1.10
2023-02-03T20:48:20.320Z,1.20
2023-02-03T20:50:50.327Z,1.00
2023-02-03T20:53:25.638Z,1.10
2023-02-03T20:56:00.528Z,1.10
2023-02-03T20:58:35.090Z,1.10
2023-02-03T21:01:12.560Z,2.30
2023-02-03T21:03:58.523Z,1.50
2023-02-03T21:06:27.665Z,1.10
2023-02-03T21:08:54.550Z,1.10
2023-02-03T21:11:26.962Z,1.10
2023-02-03T21:13:53.888Z,1.10
2023-02-03T21:16:27.760Z,1.10
2023-02-03T21:18:57.176Z,1.10
2023-02-03T21:21:29.449Z,1.10
2023-02-03T21:23:56.785Z,1.40
2023-02-03T21:26:29.636Z,1.30
2023-02-03T21:28:59.490Z,1.10
2023-02-03T21:31:31.670Z,1.10
2023-02-03T21:34:04.569Z,1.20
2023-02-03T21:36:38.079Z,1.00
2023-02-03T21:39:26.024Z,1.10
2023-02-03T21:41:53.361Z,1.10
2023-02-03T21:44:33.194Z,2.10
2023-02-03T21:47:17.390Z,1.00
2023-02-03T21:49:44.453Z,1.10
2023-02-03T21:52:14.784Z,1.00
2023-02-03T21:54:44.399Z,1.10
2023-02-03T21:57:15.984Z,1.00
2023-02-03T21:59:47.151Z,1.00
2023-02-03T22:02:52.461Z,1.20
2023-02-03T22:05:19.506Z,1.00
2023-02-03T22:10:13.601Z,1.00
2023-02-03T22:12:40.381Z,2.00
2023-02-03T22:15:07.569Z,1.00
2023-02-03T22:17:34.414Z,1.00
2023-02-03T22:20:01.254Z,1.00
2023-02-03T22:22:28.846Z,1.50
2023-02-03T22:24:55.641Z,0.90
2023-02-03T22:27:25.197Z,0.90
2023-02-03T22:29:53.321Z,1.00
2023-02-03T22:34:47.601Z,0.80
2023-02-03T22:37:14.448Z,0.50
2023-02-03T22:39:41.236Z,0.80
2023-02-03T22:42:08.140Z,1.70
2023-02-03T22:44:34.949Z,0.70
2023-02-03T22:47:01.724Z,0.80
2023-02-03T22:49:28.507Z,0.80
2023-02-03T22:51:55.319Z,1.50
2023-02-03T22:54:22.155Z,0.70
2023-02-03T22:56:49.066Z,0.70
2023-02-03T22:59:16.033Z,0.70
2023-02-03T23:01:42.910Z,0.80
2023-02-03T23:06:37.361Z,0.70
2023-02-03T23:09:04.495Z,0.70
2023-02-03T23:11:31.466Z,0.60
2023-02-03T23:18:52.812Z,0.30
2023-02-03T23:21:19.739Z,0.80
2023-02-03T23:23:46.677Z,1.00
2023-02-03T23:26:13.562Z,2.40
2023-02-03T23:28:40.527Z,2.40
2023-02-03T23:31:07.482Z,0.50
2023-02-03T23:33:34.426Z,1.10
2023-02-03T23:36:01.313Z,0.40
2023-02-03T23:38:28.256Z,0.40
2023-02-03T23:40:56.451Z,0.20
2023-02-03T23:48:17.881Z,0.30
2023-02-03T23:50:44.878Z,0.80
2023-02-03T23:53:11.700Z,0.10
2023-02-03T23:55:38.610Z,0.90
2023-02-03T23:58:05.455Z,1.10
